createdAt,value
2022-11-23T00:01:34.348Z,12.835962
2022-11-23T00:06:36.134Z,13.221866
2022-11-23T00:11:37.599Z,12.448646
2022-11-23T00:16:39.074Z,12.794208
2022-11-23T00:21:40.812Z,12.956012
2022-11-23T00:26:42.404Z,13.016206
2022-11-23T00:31:43.849Z,13.369272
2022-11-23T00:36:47.154Z,12.67329
2022-11-23T00:41:48.662Z,12.636762
2022-11-23T00:46:50.314Z,13.001198
2022-11-23T00:51:51.922Z,12.43452
2022-11-23T00:56:53.591Z,12.614426
2022-11-23T01:01:55.391Z,11.689662
2022-11-23T01:06:58.178Z,12.781074
2022-11-23T01:11:59.921Z,12.740636
2022-11-23T01:17:01.639Z,12.92529
2022-11-23T01:22:03.368Z,11.970958
2022-11-23T01:27:05.117Z,11.509608
2022-11-23T01:32:06.899Z,12.32165
2022-11-23T01:37:08.982Z,12.455812
2022-11-23T01:42:15.164Z,12.38757
2022-11-23T01:47:19.463Z,12.929252
2022-11-23T01:52:21.284Z,12.881868
2022-11-23T01:57:23.078Z,12.295786
2022-11-23T02:02:25.439Z,12.44098
2022-11-23T02:07:27.525Z,12.414492
2022-11-23T02:12:29.221Z,12.81231
2022-11-23T02:17:30.737Z,12.188708
2022-11-23T02:22:32.340Z,12.452894
2022-11-23T02:27:33.852Z,12.74947
2022-11-23T02:32:35.495Z,12.404518
2022-11-23T02:37:37.258Z,12.459244
2022-11-23T02:42:39.056Z,13.128304
2022-11-23T02:47:40.880Z,13.03827
2022-11-23T02:52:42.607Z,12.305664
2022-11-23T02:57:44.276Z,12.497198
2022-11-23T03:02:45.901Z,12.479368
2022-11-23T03:07:48.015Z,12.33815
2022-11-23T03:12:49.796Z,12.258104
2022-11-23T03:17:51.613Z,12.94806
2022-11-23T03:22:53.410Z,12.990438
2022-11-23T03:27:55.273Z,12.221194
2022-11-23T03:32:57.051Z,12.726252
2022-11-23T03:37:59.516Z,12.650168
2022-11-23T03:43:01.270Z,12.680794
2022-11-23T03:48:03.046Z,12.416256
2022-11-23T03:53:04.881Z,12.860414
2022-11-23T03:58:06.659Z,13.424704
2022-11-23T04:03:08.427Z,13.47696
2022-11-23T04:08:10.422Z,12.878502
2022-11-23T04:13:12.168Z,13.250552
2022-11-23T04:18:13.962Z,13.58861
2022-11-23T04:23:15.553Z,13.705742
2022-11-23T04:28:17.311Z,14.307104
2022-11-23T04:33:19.081Z,13.64571
2022-11-23T04:38:21.044Z,14.647116
2022-11-23T04:43:22.825Z,14.882072
2022-11-23T04:48:24.633Z,15.817814
2022-11-23T04:53:26.442Z,16.010868
2022-11-23T04:58:30.304Z,16.708724
2022-11-23T05:03:35.831Z,16.855424
2022-11-23T05:08:37.584Z,16.440562
2022-11-23T05:13:39.078Z,16.994186
2022-11-23T05:18:40.545Z,17.864538
2022-11-23T05:23:42.223Z,18.487476
2022-11-23T05:28:43.915Z,18.382868
2022-11-23T05:33:46.056Z,18.574348
2022-11-23T05:38:47.791Z,19.117144
2022-11-23T05:43:49.299Z,19.571576
2022-11-23T05:48:50.805Z,20.727948
2022-11-23T05:53:52.322Z,20.906456
2022-11-23T05:58:54.035Z,21.22777
2022-11-23T06:03:55.881Z,21.169258
2022-11-23T06:08:57.652Z,21.857358
2022-11-23T06:13:59.371Z,21.740768
2022-11-23T06:19:01.796Z,22.121246
2022-11-23T06:24:03.401Z,22.396994
2022-11-23T06:29:05.209Z,22.167084
2022-11-23T06:34:06.898Z,22.52353
2022-11-23T06:39:08.732Z,21.970922
2022-11-23T06:44:10.566Z,22.249872
2022-11-23T06:49:12.229Z,23.654148
2022-11-23T06:54:13.971Z,24.419026
2022-11-23T06:59:15.718Z,24.811608
2022-11-23T07:04:17.449Z,24.520486
2022-11-23T07:09:19.485Z,25.729456
2022-11-23T07:14:21.270Z,25.503916
2022-11-23T07:19:23.064Z,25.170266
2022-11-23T07:24:24.805Z,25.462908
2022-11-23T07:29:26.320Z,26.036224
2022-11-23T07:34:27.935Z,26.268156
2022-11-23T07:39:55.229Z,26.235698
2022-11-23T07:44:58.800Z,26.917666
2022-11-23T07:50:00.597Z,25.163834
2022-11-23T07:55:02.610Z,25.234858
2022-11-23T08:00:04.423Z,24.681164
2022-11-23T08:05:08.784Z,24.582336
2022-11-23T08:10:15.798Z,24.009224
2022-11-23T08:15:17.576Z,23.22155
2022-11-23T08:20:19.313Z,24.306466
2022-11-23T08:25:21.260Z,26.062238
2022-11-23T08:30:23.190Z,26.753704
2022-11-23T08:35:25.009Z,25.63717
2022-11-23T08:40:27.174Z,24.697976
2022-11-23T08:45:29.061Z,25.473058
2022-11-23T08:50:30.946Z,27.50428
2022-11-23T08:55:33.105Z,26.29003
2022-11-23T09:00:34.638Z,27.16926
2022-11-23T09:05:36.172Z,25.79607
2022-11-23T09:10:37.867Z,25.082376
2022-11-23T09:15:39.551Z,25.087682
2022-11-23T09:20:41.181Z,27.929322
2022-11-23T09:25:43.056Z,27.809014
2022-11-23T09:30:44.823Z,28.681676
2022-11-23T09:35:46.359Z,26.70161
2022-11-23T09:40:51.411Z,26.016806
2022-11-23T09:45:57.196Z,26.686846
2022-11-23T09:50:59.013Z,28.705748
2022-11-23T09:56:00.796Z,30.686318
2022-11-23T10:01:02.527Z,26.281564
2022-11-23T10:06:04.289Z,24.894152
2022-11-23T10:11:06.387Z,23.92094
2022-11-23T10:16:08.016Z,23.512658
2022-11-23T10:21:09.660Z,23.855182
2022-11-23T10:26:11.189Z,23.93394
2022-11-23T10:31:12.837Z,24.647172
2022-11-23T10:36:15.800Z,24.153944
2022-11-23T10:41:18.025Z,24.938932
2022-11-23T10:46:20.261Z,25.714014
2022-11-23T10:51:21.986Z,26.792296
2022-11-23T10:56:23.537Z,28.385492
2022-11-23T11:01:25.379Z,28.516792
2022-11-23T11:06:27.103Z,29.425454
2022-11-23T11:11:28.736Z,28.38879
2022-11-23T11:16:30.413Z,28.317522
2022-11-23T11:21:31.998Z,28.984048
2022-11-23T11:26:33.928Z,29.541286
2022-11-23T11:31:35.492Z,28.451942
2022-11-23T11:36:37.403Z,28.10323
2022-11-23T11:41:39.251Z,27.766446
2022-11-23T11:46:40.823Z,28.232536
2022-11-23T11:51:42.412Z,27.74681
2022-11-23T11:56:43.886Z,26.989368
2022-11-23T12:01:45.617Z,26.94129
2022-11-23T12:06:47.384Z,26.400108
2022-11-23T12:11:50.033Z,27.290206
2022-11-23T12:17:04.333Z,28.621006
2022-11-23T12:22:27.403Z,27.057148
2022-11-23T12:27:29.162Z,26.413746
2022-11-23T12:32:30.862Z,27.099512
2022-11-23T12:37:32.343Z,28.490114
2022-11-23T12:42:34.385Z,29.293028
2022-11-23T12:47:36.011Z,29.094192
2022-11-23T12:52:37.601Z,28.43076
2022-11-23T12:57:39.321Z,29.29965
2022-11-23T13:02:40.857Z,28.885396
2022-11-23T13:07:46.251Z,28.57772
2022-11-23T13:12:51.039Z,27.87503
2022-11-23T13:17:52.531Z,28.502284
2022-11-23T13:22:54.020Z,27.777504
2022-11-23T13:27:55.908Z,26.63516
2022-11-23T13:32:57.562Z,26.760964
2022-11-23T13:37:59.294Z,28.194186
2022-11-23T13:43:01.001Z,27.951834
2022-11-23T13:48:02.768Z,27.728926
2022-11-23T13:53:04.344Z,27.43631
2022-11-23T13:58:06.036Z,27.33257
2022-11-23T14:03:07.884Z,27.721422
2022-11-23T14:08:09.390Z,28.251098
2022-11-23T14:13:11.113Z,27.545776
2022-11-23T14:18:12.647Z,27.93726
2022-11-23T14:23:14.132Z,27.545302
2022-11-23T14:28:15.804Z,27.33831
2022-11-23T14:33:17.510Z,27.231938
2022-11-23T14:38:19.271Z,27.331688
2022-11-23T14:43:21.158Z,27.656532
2022-11-23T14:48:22.824Z,27.96463
2022-11-23T14:53:24.357Z,25.881938
2022-11-23T14:58:26.437Z,25.78729
2022-11-23T15:03:50.383Z,26.579104
2022-11-23T15:08:53.107Z,26.505638
2022-11-23T15:13:55.160Z,26.659924
2022-11-23T15:18:56.917Z,26.31295
2022-11-23T15:23:58.675Z,26.384448
2022-11-23T15:29:00.452Z,26.029372
2022-11-23T15:34:02.283Z,25.577586
2022-11-23T15:39:04.053Z,25.424412
2022-11-23T15:44:06.076Z,25.536524
2022-11-23T15:49:07.848Z,25.424466
2022-11-23T15:54:09.702Z,25.075524
2022-11-23T15:59:11.518Z,25.268402
2022-11-23T16:04:13.475Z,24.705874
2022-11-23T16:09:49.187Z,25.384694
2022-11-23T16:14:53.248Z,25.267724
2022-11-23T16:19:54.735Z,25.181448
2022-11-23T16:24:56.399Z,24.866538
2022-11-23T16:30:02.927Z,24.495288
2022-11-23T16:35:05.027Z,24.784008
2022-11-23T16:40:06.695Z,24.815978
2022-11-23T16:45:08.730Z,24.750016
2022-11-23T16:50:10.361Z,24.09014
2022-11-23T16:55:15.008Z,23.904806
2022-11-23T17:00:16.754Z,23.23208
2022-11-23T17:05:18.469Z,23.546162
2022-11-23T17:10:20.244Z,22.777024
2022-11-23T17:15:22.687Z,23.261024
2022-11-23T17:20:24.453Z,23.290836
2022-11-23T17:25:26.239Z,22.442072
2022-11-23T17:30:28.398Z,21.931204
2022-11-23T17:35:33.973Z,22.098042
2022-11-23T17:40:38.712Z,21.62464
2022-11-23T17:45:40.377Z,21.564608
2022-11-23T17:50:41.952Z,21.684916
2022-11-23T17:55:43.421Z,22.013734
2022-11-23T18:00:45.247Z,21.485416
2022-11-23T18:05:46.995Z,21.565544
2022-11-23T18:10:48.695Z,20.794222
2022-11-23T18:15:50.600Z,21.06963
2022-11-23T18:20:52.408Z,21.363398
2022-11-23T18:25:54.264Z,20.900838
2022-11-23T18:30:56.204Z,21.238938
2022-11-23T18:36:03.637Z,20.886468
2022-11-23T18:41:07.254Z,20.521894
2022-11-23T18:46:09.264Z,20.526562
2022-11-23T18:51:11.099Z,20.676438
2022-11-23T18:56:12.891Z,21.057146
2022-11-23T19:01:14.876Z,20.09471
2022-11-23T19:06:16.735Z,20.799826
2022-11-23T19:11:18.651Z,20.208138
2022-11-23T19:16:20.772Z,20.217596
2022-11-23T19:21:22.628Z,19.935376
2022-11-23T19:26:24.458Z,20.112364
2022-11-23T19:31:26.362Z,20.049062
2022-11-23T19:36:28.230Z,20.121632
2022-11-23T19:41:30.908Z,19.5075
2022-11-23T19:46:33.089Z,19.49868
2022-11-23T19:51:34.781Z,19.620236
2022-11-23T19:56:36.304Z,19.556934
2022-11-23T20:01:38.046Z,19.625596
2022-11-23T20:06:39.558Z,19.647226
2022-11-23T20:11:41.305Z,19.62295
2022-11-23T20:16:43.295Z,18.801828
2022-11-23T20:21:44.724Z,18.591934
2022-11-23T20:26:46.526Z,19.27295
2022-11-23T20:31:48.437Z,18.95454
2022-11-23T20:36:50.245Z,18.407252
2022-11-23T20:41:52.021Z,18.812684
2022-11-23T20:47:01.715Z,18.780212
2022-11-23T20:52:04.755Z,19.03072
2022-11-23T20:57:06.606Z,19.090738
2022-11-23T21:02:08.157Z,19.105488
2022-11-23T21:07:09.706Z,17.979132
2022-11-23T21:12:11.261Z,18.252084
2022-11-23T21:17:13.115Z,18.520246
2022-11-23T21:22:14.651Z,18.762992
2022-11-23T21:27:16.101Z,18.977758
2022-11-23T21:32:17.796Z,18.593074
2022-11-23T21:37:19.416Z,18.465072
2022-11-23T21:42:20.887Z,17.85607
2022-11-23T21:47:22.726Z,18.471952
2022-11-23T21:52:24.434Z,17.746102
2022-11-23T21:57:26.154Z,17.349138
2022-11-23T22:02:27.801Z,17.614654
2022-11-23T22:07:29.411Z,17.987084
2022-11-23T22:12:31.021Z,17.840804
2022-11-23T22:17:32.986Z,17.725436
2022-11-23T22:22:34.544Z,17.611492
2022-11-23T22:27:36.016Z,17.963066
2022-11-23T22:32:37.625Z,17.441194
2022-11-23T22:37:39.209Z,18.12928
2022-11-23T22:42:41.031Z,17.448088
2022-11-23T22:47:42.795Z,17.79517
2022-11-23T22:52:44.372Z,17.225384
2022-11-23T22:57:46.197Z,17.227148
2022-11-23T23:02:48.277Z,16.981756
2022-11-23T23:07:50.248Z,17.35249
2022-11-23T23:12:52.054Z,17.365286
2022-11-23T23:17:54.051Z,17.453122
2022-11-23T23:22:55.816Z,17.259986
2022-11-23T23:27:57.312Z,17.536534
2022-11-23T23:32:59.153Z,17.193156
2022-11-23T23:38:00.769Z,17.164294
2022-11-23T23:43:02.533Z,17.021908
2022-11-23T23:48:04.605Z,17.344538
2022-11-23T23:53:06.391Z,16.655584
2022-11-23T23:58:07.940Z,17.252822
